CES5807 ZPPP-ZSSS
Flight info
| Callsign | CES5807 |
|---|---|
| Flight time | 2h 24m |
| Altitude | 37100 |
| Route | NODIB4Q NODIB W137 LPS A581 WHA R343 SASAN SAS71A |
| Aircraft | B77W/H-SDE1E2E3FGHIJ2J3J4J5M1RWXY/LB1D1 |
Departure
| Time | 2026-04-28 07:01 |
|---|---|
| Airport | Kunming Changshui International Airport (ZPPP) |
Arrival
| Time | 2026-04-28 09:25 |
|---|---|
| Airport | Shanghai Hongqiao International Airport (ZSSS) |
| Time | Latitude | Longitude | Altitude | Speed | Heading |
|---|---|---|---|---|---|
| 2026-04-28 06:32 | 25.11289 | 102.93421 | 6887 ft | 0 kts | 39° |
| 2026-04-28 06:49 | 25.11284 | 102.93416 | 6922 ft | 3 kts | 38° |
| 2026-04-28 06:49 | 25.11268 | 102.93403 | 6912 ft | 3 kts | 37° |
| 2026-04-28 06:49 | 25.11252 | 102.93389 | 6922 ft | 3 kts | 35° |
| 2026-04-28 06:50 | 25.11236 | 102.93378 | 6922 ft | 3 kts | 29° |
| 2026-04-28 06:50 | 25.11222 | 102.93370 | 6922 ft | 1 kts | 13° |
| 2026-04-28 06:50 | 25.11214 | 102.93369 | 6922 ft | 1 kts | 350° |
| 2026-04-28 06:50 | 25.11205 | 102.93371 | 6922 ft | 1 kts | 324° |
| 2026-04-28 06:51 | 25.11199 | 102.93377 | 6922 ft | 1 kts | 312° |
| 2026-04-28 06:51 | 25.11193 | 102.93384 | 6922 ft | 1 kts | 308° |
| 2026-04-28 06:51 | 25.11190 | 102.93388 | 6922 ft | 0 kts | 308° |
| 2026-04-28 06:54 | 25.11226 | 102.93338 | 6919 ft | 17 kts | 308° |
| 2026-04-28 06:54 | 25.11297 | 102.93236 | 6919 ft | 17 kts | 308° |
| 2026-04-28 06:54 | 25.11371 | 102.93138 | 6920 ft | 17 kts | 310° |
| 2026-04-28 06:54 | 25.11434 | 102.93053 | 6924 ft | 10 kts | 315° |
| 2026-04-28 06:55 | 25.11497 | 102.93046 | 6921 ft | 10 kts | 31° |
| 2026-04-28 06:55 | 25.11558 | 102.93100 | 6919 ft | 16 kts | 38° |
| 2026-04-28 06:55 | 25.11647 | 102.93177 | 6923 ft | 16 kts | 38° |
| 2026-04-28 06:55 | 25.11736 | 102.93254 | 6912 ft | 16 kts | 38° |
| 2026-04-28 06:56 | 25.11825 | 102.93332 | 6917 ft | 16 kts | 38° |
| 2026-04-28 06:56 | 25.11914 | 102.93409 | 6913 ft | 16 kts | 38° |
| 2026-04-28 06:56 | 25.12003 | 102.93486 | 6914 ft | 16 kts | 38° |
| 2026-04-28 06:56 | 25.12092 | 102.93563 | 6915 ft | 16 kts | 39° |
| 2026-04-28 06:57 | 25.12181 | 102.93641 | 6918 ft | 16 kts | 38° |
| 2026-04-28 06:57 | 25.12270 | 102.93718 | 6909 ft | 16 kts | 38° |
| 2026-04-28 06:57 | 25.12358 | 102.93795 | 6910 ft | 16 kts | 38° |
| 2026-04-28 06:57 | 25.12448 | 102.93872 | 6903 ft | 16 kts | 38° |
| 2026-04-28 06:58 | 25.12537 | 102.93949 | 6903 ft | 16 kts | 38° |
| 2026-04-28 06:58 | 25.12626 | 102.94026 | 6902 ft | 16 kts | 38° |
| 2026-04-28 06:58 | 25.12715 | 102.94104 | 6902 ft | 16 kts | 38° |
| 2026-04-28 06:58 | 25.12804 | 102.94181 | 6901 ft | 16 kts | 38° |
| 2026-04-28 06:59 | 25.12890 | 102.94255 | 6901 ft | 12 kts | 38° |
| 2026-04-28 06:59 | 25.12962 | 102.94259 | 6901 ft | 12 kts | 322° |
| 2026-04-28 06:59 | 25.13012 | 102.94189 | 6900 ft | 12 kts | 303° |
| 2026-04-28 06:59 | 25.13004 | 102.94111 | 6899 ft | 12 kts | 217° |
| 2026-04-28 07:00 | 25.12919 | 102.94035 | 6900 ft | 26 kts | 222° |
| 2026-04-28 07:00 | 25.12622 | 102.93782 | 6903 ft | 85 kts | 218° |
| 2026-04-28 07:00 | 25.12004 | 102.93245 | 6914 ft | 140 kts | 218° |
| 2026-04-28 07:00 | 25.11120 | 102.92473 | 6919 ft | 182 kts | 218° |
| 2026-04-28 07:01 | 25.10123 | 102.91597 | 7358 ft | 183 kts | 218° |
| 2026-04-28 07:01 | 25.09206 | 102.90641 | 7952 ft | 181 kts | 236° |
| 2026-04-28 07:01 | 25.08510 | 102.89519 | 8461 ft | 178 kts | 235° |
| 2026-04-28 07:01 | 25.07761 | 102.88414 | 8861 ft | 183 kts | 234° |
| 2026-04-28 07:02 | 25.06798 | 102.87441 | 9057 ft | 200 kts | 204° |
| 2026-04-28 07:02 | 25.05350 | 102.87291 | 9235 ft | 225 kts | 171° |
| 2026-04-28 07:02 | 25.03868 | 102.88088 | 9383 ft | 255 kts | 141° |
| 2026-04-28 07:02 | 25.02804 | 102.89750 | 9622 ft | 282 kts | 112° |
| 2026-04-28 07:03 | 25.02534 | 102.91961 | 9942 ft | 299 kts | 88° |
| 2026-04-28 07:03 | 25.02726 | 102.94263 | 10549 ft | 310 kts | 84° |
| 2026-04-28 07:03 | 25.03001 | 102.96719 | 10760 ft | 336 kts | 83° |
| 2026-04-28 07:03 | 25.03282 | 102.99387 | 10916 ft | 364 kts | 84° |
| 2026-04-28 07:04 | 25.03543 | 103.02257 | 11292 ft | 385 kts | 85° |
| 2026-04-28 07:04 | 25.03776 | 103.05228 | 12105 ft | 393 kts | 85° |
| 2026-04-28 07:04 | 25.03992 | 103.08265 | 12886 ft | 402 kts | 85° |
| 2026-04-28 07:04 | 25.04198 | 103.11366 | 13802 ft | 407 kts | 86° |
| 2026-04-28 07:05 | 25.04403 | 103.14495 | 14668 ft | 412 kts | 85° |
| 2026-04-28 07:05 | 25.04611 | 103.17679 | 15379 ft | 421 kts | 85° |
| 2026-04-28 07:05 | 25.05014 | 103.20863 | 16003 ft | 423 kts | 72° |
| 2026-04-28 07:05 | 25.06331 | 103.23775 | 16631 ft | 428 kts | 52° |
| 2026-04-28 07:06 | 25.08391 | 103.26123 | 17440 ft | 425 kts | 35° |
| 2026-04-28 07:06 | 25.10808 | 103.28016 | 18113 ft | 430 kts | 32° |
| 2026-04-28 07:06 | 25.13305 | 103.29884 | 18725 ft | 436 kts | 31° |
| 2026-04-28 07:06 | 25.15832 | 103.31763 | 19416 ft | 440 kts | 31° |
| 2026-04-28 07:07 | 25.18374 | 103.33668 | 20109 ft | 444 kts | 32° |
| 2026-04-28 07:07 | 25.20935 | 103.35608 | 20758 ft | 449 kts | 32° |
| 2026-04-28 07:07 | 25.23514 | 103.37578 | 21449 ft | 453 kts | 32° |
| 2026-04-28 07:07 | 25.26111 | 103.39574 | 22108 ft | 457 kts | 32° |
| 2026-04-28 07:08 | 25.28732 | 103.41593 | 22689 ft | 462 kts | 32° |
| 2026-04-28 07:08 | 25.31385 | 103.43643 | 23281 ft | 467 kts | 32° |
| 2026-04-28 07:08 | 25.34060 | 103.45711 | 23843 ft | 472 kts | 32° |
| 2026-04-28 07:08 | 25.36762 | 103.47798 | 24336 ft | 476 kts | 32° |
| 2026-04-28 07:09 | 25.39486 | 103.49904 | 24832 ft | 480 kts | 32° |
| 2026-04-28 07:09 | 25.42234 | 103.52030 | 25338 ft | 484 kts | 32° |
| 2026-04-28 07:09 | 25.45004 | 103.54173 | 25835 ft | 488 kts | 32° |
| 2026-04-28 07:09 | 25.47759 | 103.56307 | 26310 ft | 492 kts | 32° |
| 2026-04-28 07:10 | 25.50609 | 103.58514 | 26803 ft | 496 kts | 32° |
| 2026-04-28 07:10 | 25.53341 | 103.60865 | 27221 ft | 502 kts | 42° |
| 2026-04-28 07:10 | 25.55525 | 103.63907 | 27604 ft | 508 kts | 56° |
| 2026-04-28 07:10 | 25.57399 | 103.67252 | 27985 ft | 514 kts | 57° |
| 2026-04-28 07:11 | 25.59225 | 103.70610 | 28407 ft | 518 kts | 57° |
| 2026-04-28 07:11 | 25.61101 | 103.74025 | 28864 ft | 520 kts | 57° |
| 2026-04-28 07:11 | 25.63017 | 103.77437 | 29352 ft | 522 kts | 56° |
| 2026-04-28 07:11 | 25.64961 | 103.80832 | 29985 ft | 521 kts | 56° |
| 2026-04-28 07:12 | 25.66910 | 103.84198 | 30596 ft | 518 kts | 56° |
| 2026-04-28 07:12 | 25.68854 | 103.87542 | 31202 ft | 515 kts | 56° |
| 2026-04-28 07:12 | 25.70790 | 103.90875 | 31806 ft | 513 kts | 56° |
| 2026-04-28 07:12 | 25.72715 | 103.94195 | 32362 ft | 511 kts | 56° |
| 2026-04-28 07:13 | 25.74629 | 103.97506 | 32908 ft | 509 kts | 56° |
| 2026-04-28 07:13 | 25.76544 | 104.00824 | 33100 ft | 512 kts | 56° |
| 2026-04-28 07:13 | 25.78462 | 104.04148 | 33082 ft | 510 kts | 56° |
| 2026-04-28 07:14 | 25.82370 | 104.10873 | 33087 ft | 508 kts | 55° |
| 2026-04-28 07:14 | 25.86272 | 104.17479 | 33389 ft | 516 kts | 55° |
| 2026-04-28 07:14 | 25.88241 | 104.20816 | 33651 ft | 519 kts | 55° |
| 2026-04-28 07:15 | 25.90221 | 104.24181 | 33915 ft | 522 kts | 56° |
| 2026-04-28 07:15 | 25.92208 | 104.27567 | 34155 ft | 525 kts | 56° |
| 2026-04-28 07:15 | 25.94207 | 104.30978 | 34389 ft | 527 kts | 56° |
| 2026-04-28 07:15 | 25.96181 | 104.34351 | 34590 ft | 528 kts | 56° |
| 2026-04-28 07:16 | 25.98185 | 104.37775 | 34828 ft | 529 kts | 56° |
| 2026-04-28 07:16 | 26.00206 | 104.41197 | 35060 ft | 530 kts | 53° |
| 2026-04-28 07:16 | 26.02444 | 104.44442 | 35281 ft | 528 kts | 47° |
| 2026-04-28 07:16 | 26.04908 | 104.47465 | 35519 ft | 527 kts | 43° |
| 2026-04-28 07:17 | 26.07593 | 104.50220 | 35725 ft | 524 kts | 37° |
| 2026-04-28 07:17 | 26.10382 | 104.52805 | 35990 ft | 519 kts | 37° |
| 2026-04-28 07:17 | 26.13165 | 104.55335 | 36229 ft | 514 kts | 36° |
| 2026-04-28 07:17 | 26.15923 | 104.57839 | 36438 ft | 510 kts | 36° |
| 2026-04-28 07:18 | 26.18660 | 104.60342 | 36689 ft | 508 kts | 36° |
| 2026-04-28 07:18 | 26.21374 | 104.62843 | 36936 ft | 507 kts | 37° |
| 2026-04-28 07:18 | 26.24096 | 104.65366 | 37005 ft | 511 kts | 37° |
| 2026-04-28 07:19 | 26.29564 | 104.70464 | 37077 ft | 512 kts | 37° |
| 2026-04-28 07:19 | 26.35011 | 104.75555 | 37056 ft | 511 kts | 37° |
| 2026-04-28 07:20 | 26.40446 | 104.80633 | 37083 ft | 510 kts | 37° |
| 2026-04-28 07:20 | 26.45889 | 104.85725 | 37075 ft | 511 kts | 37° |
| 2026-04-28 07:21 | 26.51330 | 104.90821 | 37086 ft | 510 kts | 37° |
| 2026-04-28 07:21 | 26.56763 | 104.95918 | 37102 ft | 510 kts | 37° |
| 2026-04-28 07:22 | 26.64311 | 105.04335 | 37102 ft | 517 kts | 52° |
| 2026-04-28 07:22 | 26.67848 | 105.11335 | 37120 ft | 519 kts | 64° |
| 2026-04-28 07:23 | 26.70751 | 105.18738 | 37124 ft | 520 kts | 65° |
| 2026-04-28 07:23 | 26.73644 | 105.26162 | 37123 ft | 521 kts | 65° |
| 2026-04-28 07:24 | 26.76587 | 105.33562 | 37116 ft | 520 kts | 65° |
| 2026-04-28 07:24 | 26.79544 | 105.40932 | 37123 ft | 519 kts | 64° |
| 2026-04-28 07:25 | 26.82477 | 105.48249 | 37125 ft | 519 kts | 64° |
| 2026-04-28 07:25 | 26.85420 | 105.55619 | 37123 ft | 518 kts | 65° |
| 2026-04-28 07:26 | 26.88354 | 105.62986 | 37123 ft | 517 kts | 65° |
| 2026-04-28 07:26 | 26.91281 | 105.70346 | 37123 ft | 517 kts | 65° |
| 2026-04-28 07:27 | 26.94203 | 105.77707 | 37122 ft | 517 kts | 65° |
| 2026-04-28 07:27 | 26.96646 | 105.83873 | 37128 ft | 517 kts | 65° |
| 2026-04-28 07:28 | 26.99561 | 105.91243 | 37118 ft | 517 kts | 65° |
| 2026-04-28 07:28 | 27.02453 | 105.98565 | 37123 ft | 517 kts | 65° |
| 2026-04-28 07:29 | 27.05454 | 106.05896 | 37114 ft | 517 kts | 62° |
| 2026-04-28 07:29 | 27.08740 | 106.13066 | 37128 ft | 516 kts | 61° |
| 2026-04-28 07:30 | 27.12051 | 106.20219 | 37132 ft | 517 kts | 62° |
| 2026-04-28 07:30 | 27.15331 | 106.27415 | 37125 ft | 518 kts | 62° |
| 2026-04-28 07:31 | 27.18599 | 106.34629 | 37130 ft | 518 kts | 62° |
| 2026-04-28 07:31 | 27.21878 | 106.41851 | 37125 ft | 519 kts | 62° |
| 2026-04-28 07:32 | 27.25163 | 106.49071 | 37135 ft | 519 kts | 62° |
| 2026-04-28 07:32 | 27.28448 | 106.56305 | 37134 ft | 520 kts | 63° |
| 2026-04-28 07:33 | 27.31730 | 106.63552 | 37102 ft | 520 kts | 63° |
| 2026-04-28 07:33 | 27.35000 | 106.70788 | 37112 ft | 518 kts | 63° |
| 2026-04-28 07:34 | 27.38257 | 106.78011 | 37106 ft | 518 kts | 63° |
| 2026-04-28 07:34 | 27.41494 | 106.85244 | 37109 ft | 517 kts | 64° |
| 2026-04-28 07:35 | 27.44726 | 106.92482 | 37092 ft | 518 kts | 64° |
| 2026-04-28 07:35 | 27.47965 | 106.99735 | 37083 ft | 519 kts | 64° |
| 2026-04-28 07:36 | 27.51251 | 107.06982 | 37091 ft | 520 kts | 64° |
| 2026-04-28 07:36 | 27.54553 | 107.14240 | 37077 ft | 521 kts | 64° |
| 2026-04-28 07:37 | 27.57829 | 107.21479 | 37068 ft | 522 kts | 64° |
| 2026-04-28 07:37 | 27.61141 | 107.28830 | 37074 ft | 523 kts | 64° |
| 2026-04-28 07:38 | 27.64407 | 107.36106 | 37070 ft | 524 kts | 65° |
| 2026-04-28 07:38 | 27.67698 | 107.43449 | 37066 ft | 525 kts | 65° |
| 2026-04-28 07:39 | 27.70992 | 107.50807 | 37055 ft | 526 kts | 65° |
| 2026-04-28 07:39 | 27.74288 | 107.58183 | 37040 ft | 527 kts | 65° |
| 2026-04-28 07:40 | 27.77584 | 107.65574 | 37055 ft | 527 kts | 65° |
| 2026-04-28 07:40 | 27.80880 | 107.72977 | 37033 ft | 528 kts | 65° |
| 2026-04-28 07:41 | 27.84186 | 107.80384 | 37026 ft | 528 kts | 65° |
| 2026-04-28 07:41 | 27.87556 | 107.87756 | 37033 ft | 528 kts | 64° |
| 2026-04-28 07:42 | 27.90941 | 107.95127 | 37019 ft | 528 kts | 64° |
| 2026-04-28 07:42 | 27.94309 | 108.02511 | 37024 ft | 529 kts | 64° |
| 2026-04-28 07:43 | 27.97676 | 108.09917 | 37021 ft | 530 kts | 64° |
| 2026-04-28 07:43 | 28.01043 | 108.17343 | 37016 ft | 531 kts | 64° |
| 2026-04-28 07:44 | 28.04409 | 108.24776 | 37035 ft | 530 kts | 64° |
| 2026-04-28 07:44 | 28.07774 | 108.32220 | 37019 ft | 531 kts | 64° |
| 2026-04-28 07:45 | 28.11137 | 108.39673 | 37021 ft | 531 kts | 65° |
| 2026-04-28 07:45 | 28.14494 | 108.47129 | 37030 ft | 531 kts | 65° |
| 2026-04-28 07:46 | 28.17849 | 108.54590 | 37023 ft | 531 kts | 65° |
| 2026-04-28 07:46 | 28.21196 | 108.62049 | 37032 ft | 531 kts | 65° |
| 2026-04-28 07:47 | 28.24538 | 108.69511 | 37037 ft | 531 kts | 65° |
| 2026-04-28 07:47 | 28.27874 | 108.76971 | 37032 ft | 530 kts | 65° |
| 2026-04-28 07:48 | 28.31205 | 108.84437 | 37039 ft | 529 kts | 64° |
| 2026-04-28 07:48 | 28.34521 | 108.91883 | 37048 ft | 529 kts | 65° |
| 2026-04-28 07:49 | 28.37816 | 108.99294 | 37041 ft | 529 kts | 65° |
| 2026-04-28 07:49 | 28.41132 | 109.06768 | 37054 ft | 530 kts | 64° |
| 2026-04-28 07:50 | 28.44473 | 109.14309 | 37050 ft | 532 kts | 65° |
| 2026-04-28 07:50 | 28.47774 | 109.21773 | 37063 ft | 533 kts | 65° |
| 2026-04-28 07:51 | 28.51101 | 109.29313 | 37060 ft | 534 kts | 65° |
| 2026-04-28 07:51 | 28.54427 | 109.36867 | 37045 ft | 534 kts | 65° |
| 2026-04-28 07:52 | 28.57742 | 109.44432 | 37053 ft | 534 kts | 66° |
| 2026-04-28 07:52 | 28.60562 | 109.52231 | 37062 ft | 532 kts | 71° |
| 2026-04-28 07:53 | 28.63184 | 109.60108 | 37057 ft | 533 kts | 71° |
| 2026-04-28 07:53 | 28.65874 | 109.67972 | 37049 ft | 533 kts | 70° |
| 2026-04-28 07:54 | 28.68664 | 109.75787 | 37053 ft | 533 kts | 69° |
| 2026-04-28 07:54 | 28.71485 | 109.83583 | 37050 ft | 532 kts | 69° |
| 2026-04-28 07:55 | 28.74285 | 109.91381 | 37052 ft | 531 kts | 69° |
| 2026-04-28 07:55 | 28.77065 | 109.99179 | 37059 ft | 531 kts | 69° |
| 2026-04-28 07:56 | 28.79834 | 110.06973 | 37057 ft | 531 kts | 69° |
| 2026-04-28 07:56 | 28.82600 | 110.14768 | 37064 ft | 530 kts | 69° |
| 2026-04-28 07:57 | 28.85362 | 110.22570 | 37063 ft | 531 kts | 69° |
| 2026-04-28 07:57 | 28.88124 | 110.30384 | 37056 ft | 530 kts | 69° |
| 2026-04-28 07:58 | 28.90857 | 110.38138 | 37072 ft | 530 kts | 69° |
| 2026-04-28 07:58 | 28.93603 | 110.45937 | 37062 ft | 530 kts | 69° |
| 2026-04-28 07:59 | 28.96341 | 110.53739 | 37073 ft | 529 kts | 69° |
| 2026-04-28 07:59 | 28.99073 | 110.61543 | 37066 ft | 530 kts | 69° |
| 2026-04-28 08:00 | 29.01807 | 110.69365 | 37075 ft | 530 kts | 69° |
| 2026-04-28 08:00 | 29.04551 | 110.77188 | 37073 ft | 531 kts | 69° |
| 2026-04-28 08:01 | 29.07333 | 110.85013 | 37071 ft | 532 kts | 68° |
| 2026-04-28 08:01 | 29.10117 | 110.92850 | 37076 ft | 532 kts | 68° |
| 2026-04-28 08:02 | 29.12893 | 111.00701 | 37081 ft | 533 kts | 68° |
| 2026-04-28 08:02 | 29.15664 | 111.08566 | 37079 ft | 533 kts | 68° |
| 2026-04-28 08:03 | 29.18432 | 111.16439 | 37078 ft | 533 kts | 68° |
| 2026-04-28 08:03 | 29.21197 | 111.24321 | 37069 ft | 533 kts | 68° |
| 2026-04-28 08:04 | 29.23937 | 111.32149 | 37072 ft | 533 kts | 68° |
| 2026-04-28 08:04 | 29.26709 | 111.40084 | 37069 ft | 533 kts | 68° |
| 2026-04-28 08:05 | 29.29442 | 111.47926 | 37067 ft | 533 kts | 68° |
| 2026-04-28 08:05 | 29.32187 | 111.55822 | 37067 ft | 534 kts | 68° |
| 2026-04-28 08:06 | 29.35010 | 111.63692 | 37055 ft | 534 kts | 64° |
| 2026-04-28 08:06 | 29.38721 | 111.71047 | 37071 ft | 533 kts | 55° |
| 2026-04-28 08:07 | 29.42847 | 111.78100 | 37048 ft | 533 kts | 54° |
| 2026-04-28 08:07 | 29.46960 | 111.85175 | 37073 ft | 533 kts | 55° |
| 2026-04-28 08:08 | 29.51031 | 111.92292 | 37074 ft | 533 kts | 56° |
| 2026-04-28 08:08 | 29.55084 | 111.99426 | 37063 ft | 533 kts | 56° |
| 2026-04-28 08:09 | 29.59136 | 112.06564 | 37066 ft | 533 kts | 56° |
| 2026-04-28 08:09 | 29.63186 | 112.13703 | 37068 ft | 533 kts | 56° |
| 2026-04-28 08:10 | 29.67230 | 112.20845 | 37072 ft | 533 kts | 56° |
| 2026-04-28 08:10 | 29.69971 | 112.25692 | 37070 ft | 533 kts | 56° |
| 2026-04-28 08:11 | 29.74012 | 112.32848 | 37076 ft | 534 kts | 56° |
| 2026-04-28 08:11 | 29.77345 | 112.38782 | 37067 ft | 534 kts | 56° |
| 2026-04-28 08:12 | 29.81366 | 112.45973 | 37068 ft | 535 kts | 56° |
| 2026-04-28 08:12 | 29.85390 | 112.53182 | 37070 ft | 535 kts | 56° |
| 2026-04-28 08:13 | 29.89414 | 112.60399 | 37077 ft | 536 kts | 56° |
| 2026-04-28 08:13 | 29.93442 | 112.67636 | 37070 ft | 537 kts | 56° |
| 2026-04-28 08:14 | 29.97468 | 112.74882 | 37078 ft | 537 kts | 56° |
| 2026-04-28 08:14 | 30.01495 | 112.82144 | 37075 ft | 537 kts | 56° |
| 2026-04-28 08:15 | 30.05522 | 112.89418 | 37073 ft | 537 kts | 56° |
| 2026-04-28 08:15 | 30.09538 | 112.96685 | 37078 ft | 537 kts | 56° |
| 2026-04-28 08:16 | 30.13551 | 113.03962 | 37075 ft | 537 kts | 56° |
| 2026-04-28 08:16 | 30.16882 | 113.10011 | 37084 ft | 537 kts | 56° |
| 2026-04-28 08:17 | 30.20882 | 113.17287 | 37076 ft | 537 kts | 56° |
| 2026-04-28 08:17 | 30.24919 | 113.24557 | 37078 ft | 536 kts | 55° |
| 2026-04-28 08:18 | 30.28994 | 113.31785 | 37082 ft | 536 kts | 55° |
| 2026-04-28 08:18 | 30.33064 | 113.39023 | 37078 ft | 537 kts | 55° |
| 2026-04-28 08:19 | 30.37098 | 113.46235 | 37087 ft | 537 kts | 55° |
| 2026-04-28 08:19 | 30.41156 | 113.53510 | 37093 ft | 538 kts | 55° |
| 2026-04-28 08:20 | 30.45221 | 113.60807 | 37087 ft | 539 kts | 55° |
| 2026-04-28 08:20 | 30.49289 | 113.68125 | 37091 ft | 540 kts | 55° |
| 2026-04-28 08:21 | 30.53359 | 113.75458 | 37095 ft | 541 kts | 56° |
| 2026-04-28 08:21 | 30.57434 | 113.82814 | 37092 ft | 542 kts | 55° |
| 2026-04-28 08:22 | 30.61516 | 113.90177 | 37094 ft | 543 kts | 55° |
| 2026-04-28 08:22 | 30.65605 | 113.97550 | 37099 ft | 543 kts | 55° |
| 2026-04-28 08:23 | 30.69694 | 114.04918 | 37095 ft | 544 kts | 55° |
| 2026-04-28 08:23 | 30.73791 | 114.12317 | 37096 ft | 544 kts | 55° |
| 2026-04-28 08:24 | 30.77788 | 114.19791 | 37091 ft | 545 kts | 60° |
| 2026-04-28 08:24 | 30.80837 | 114.27868 | 37092 ft | 546 kts | 70° |
| 2026-04-28 08:25 | 30.83426 | 114.36174 | 37100 ft | 546 kts | 70° |
| 2026-04-28 08:26 | 30.87408 | 114.48612 | 37105 ft | 547 kts | 69° |
| 2026-04-28 08:26 | 30.90098 | 114.56907 | 37109 ft | 548 kts | 69° |
| 2026-04-28 08:27 | 30.92785 | 114.65210 | 37112 ft | 548 kts | 69° |
| 2026-04-28 08:27 | 30.95444 | 114.73465 | 37117 ft | 548 kts | 69° |
| 2026-04-28 08:28 | 30.98119 | 114.81790 | 37124 ft | 548 kts | 69° |
| 2026-04-28 08:28 | 31.00788 | 114.90118 | 37109 ft | 549 kts | 69° |
| 2026-04-28 08:29 | 31.03458 | 114.98446 | 37104 ft | 549 kts | 69° |
| 2026-04-28 08:29 | 31.06146 | 115.06778 | 37136 ft | 549 kts | 69° |
| 2026-04-28 08:30 | 31.08825 | 115.15107 | 37122 ft | 548 kts | 69° |
| 2026-04-28 08:30 | 31.11492 | 115.23441 | 37120 ft | 549 kts | 69° |
| 2026-04-28 08:31 | 31.14107 | 115.31809 | 37117 ft | 548 kts | 69° |
| 2026-04-28 08:31 | 31.16798 | 115.40140 | 37137 ft | 549 kts | 68° |
| 2026-04-28 08:32 | 31.19511 | 115.48475 | 37146 ft | 549 kts | 69° |
| 2026-04-28 08:32 | 31.22205 | 115.56835 | 37157 ft | 550 kts | 69° |
| 2026-04-28 08:33 | 31.24888 | 115.65211 | 37175 ft | 551 kts | 69° |
| 2026-04-28 08:33 | 31.27568 | 115.73597 | 37192 ft | 550 kts | 69° |
| 2026-04-28 08:34 | 31.30236 | 115.81950 | 37190 ft | 549 kts | 69° |
| 2026-04-28 08:34 | 31.32913 | 115.90316 | 37204 ft | 548 kts | 68° |
| 2026-04-28 08:35 | 31.35626 | 115.98651 | 37218 ft | 549 kts | 68° |
| 2026-04-28 08:35 | 31.38356 | 116.06995 | 37230 ft | 550 kts | 68° |
| 2026-04-28 08:36 | 31.41075 | 116.15351 | 37238 ft | 549 kts | 68° |
| 2026-04-28 08:36 | 31.43788 | 116.23735 | 37239 ft | 551 kts | 68° |
| 2026-04-28 08:37 | 31.46479 | 116.32076 | 37236 ft | 552 kts | 68° |
| 2026-04-28 08:37 | 31.49207 | 116.40549 | 37239 ft | 553 kts | 68° |
| 2026-04-28 08:38 | 31.51916 | 116.48981 | 37241 ft | 553 kts | 68° |
| 2026-04-28 08:38 | 31.54606 | 116.57380 | 37238 ft | 553 kts | 68° |
| 2026-04-28 08:39 | 31.57304 | 116.65824 | 37233 ft | 553 kts | 68° |
| 2026-04-28 08:39 | 31.59995 | 116.74270 | 37236 ft | 553 kts | 68° |
| 2026-04-28 08:40 | 31.62681 | 116.82722 | 37237 ft | 553 kts | 68° |
| 2026-04-28 08:40 | 31.65365 | 116.91193 | 37237 ft | 553 kts | 68° |
| 2026-04-28 08:41 | 31.68040 | 116.99653 | 37236 ft | 553 kts | 68° |
| 2026-04-28 08:41 | 31.70689 | 117.08130 | 37232 ft | 553 kts | 69° |
| 2026-04-28 08:42 | 31.73310 | 117.16624 | 37234 ft | 553 kts | 69° |
| 2026-04-28 08:42 | 31.75835 | 117.25163 | 37229 ft | 554 kts | 75° |
| 2026-04-28 08:43 | 31.77035 | 117.34107 | 37241 ft | 554 kts | 88° |
| 2026-04-28 08:43 | 31.76772 | 117.43121 | 37237 ft | 551 kts | 97° |
| 2026-04-28 08:44 | 31.76045 | 117.52078 | 37230 ft | 551 kts | 98° |
| 2026-04-28 08:44 | 31.75350 | 117.61054 | 37229 ft | 552 kts | 97° |
| 2026-04-28 08:45 | 31.74712 | 117.70039 | 37230 ft | 552 kts | 97° |
| 2026-04-28 08:45 | 31.74083 | 117.79023 | 37230 ft | 552 kts | 97° |
| 2026-04-28 08:46 | 31.73440 | 117.88005 | 37229 ft | 552 kts | 97° |
| 2026-04-28 08:46 | 31.72787 | 117.96982 | 37224 ft | 552 kts | 97° |
| 2026-04-28 08:47 | 31.72128 | 118.05958 | 37225 ft | 551 kts | 97° |
| 2026-04-28 08:47 | 31.71477 | 118.14872 | 37232 ft | 551 kts | 97° |
| 2026-04-28 08:48 | 31.70855 | 118.23843 | 37227 ft | 551 kts | 96° |
| 2026-04-28 08:48 | 31.70234 | 118.32813 | 37226 ft | 551 kts | 96° |
| 2026-04-28 08:49 | 31.69601 | 118.41781 | 37226 ft | 551 kts | 96° |
| 2026-04-28 08:49 | 31.68958 | 118.50748 | 37237 ft | 551 kts | 97° |
| 2026-04-28 08:50 | 31.68308 | 118.59721 | 37227 ft | 551 kts | 97° |
| 2026-04-28 08:50 | 31.67654 | 118.68688 | 37230 ft | 551 kts | 97° |
| 2026-04-28 08:51 | 31.66992 | 118.77652 | 37233 ft | 551 kts | 97° |
| 2026-04-28 08:51 | 31.66324 | 118.86616 | 37228 ft | 551 kts | 97° |
| 2026-04-28 08:52 | 31.65652 | 118.95574 | 37232 ft | 551 kts | 97° |
| 2026-04-28 08:52 | 31.64971 | 119.04455 | 36909 ft | 539 kts | 97° |
| 2026-04-28 08:52 | 31.64701 | 119.08827 | 36408 ft | 537 kts | 95° |
| 2026-04-28 08:53 | 31.64524 | 119.13138 | 35882 ft | 535 kts | 94° |
| 2026-04-28 08:53 | 31.64354 | 119.17485 | 35349 ft | 533 kts | 95° |
| 2026-04-28 08:53 | 31.64169 | 119.21816 | 34869 ft | 530 kts | 95° |
| 2026-04-28 08:53 | 31.63973 | 119.26109 | 34469 ft | 525 kts | 95° |
| 2026-04-28 08:54 | 31.63774 | 119.30359 | 34110 ft | 519 kts | 96° |
| 2026-04-28 08:54 | 31.63576 | 119.34565 | 33682 ft | 514 kts | 96° |
| 2026-04-28 08:54 | 31.63381 | 119.38729 | 33225 ft | 509 kts | 96° |
| 2026-04-28 08:54 | 31.63185 | 119.42866 | 32759 ft | 506 kts | 96° |
| 2026-04-28 08:55 | 31.62989 | 119.46972 | 32300 ft | 502 kts | 96° |
| 2026-04-28 08:55 | 31.62794 | 119.51038 | 31868 ft | 498 kts | 96° |
| 2026-04-28 08:55 | 31.62599 | 119.55077 | 31454 ft | 493 kts | 96° |
| 2026-04-28 08:55 | 31.62412 | 119.58919 | 31078 ft | 489 kts | 96° |
| 2026-04-28 08:56 | 31.62219 | 119.62888 | 30684 ft | 485 kts | 96° |
| 2026-04-28 08:56 | 31.62025 | 119.66818 | 30297 ft | 481 kts | 96° |
| 2026-04-28 08:56 | 31.61838 | 119.70717 | 29832 ft | 477 kts | 96° |
| 2026-04-28 08:56 | 31.61673 | 119.74278 | 29386 ft | 474 kts | 96° |
| 2026-04-28 08:57 | 31.61497 | 119.78124 | 28906 ft | 471 kts | 96° |
| 2026-04-28 08:57 | 31.61322 | 119.81945 | 28418 ft | 468 kts | 96° |
| 2026-04-28 08:57 | 31.61147 | 119.85746 | 27947 ft | 465 kts | 96° |
| 2026-04-28 08:57 | 31.60970 | 119.89520 | 27480 ft | 462 kts | 96° |
| 2026-04-28 08:58 | 31.60793 | 119.93272 | 27030 ft | 457 kts | 96° |
| 2026-04-28 08:58 | 31.60619 | 119.96949 | 26403 ft | 448 kts | 95° |
| 2026-04-28 08:58 | 31.60445 | 120.00591 | 25567 ft | 446 kts | 95° |
| 2026-04-28 08:58 | 31.60269 | 120.04221 | 24752 ft | 445 kts | 95° |
| 2026-04-28 08:59 | 31.60093 | 120.07834 | 24013 ft | 442 kts | 95° |
| 2026-04-28 08:59 | 31.59918 | 120.11421 | 23248 ft | 438 kts | 95° |
| 2026-04-28 08:59 | 31.59745 | 120.14963 | 22525 ft | 432 kts | 95° |
| 2026-04-28 08:59 | 31.59573 | 120.18450 | 21845 ft | 425 kts | 96° |
| 2026-04-28 09:00 | 31.59403 | 120.21885 | 21168 ft | 419 kts | 96° |
| 2026-04-28 09:00 | 31.59235 | 120.25275 | 20512 ft | 414 kts | 96° |
| 2026-04-28 09:00 | 31.59066 | 120.28627 | 19840 ft | 410 kts | 96° |
| 2026-04-28 09:00 | 31.58862 | 120.31938 | 19182 ft | 403 kts | 102° |
| 2026-04-28 09:01 | 31.58188 | 120.35072 | 18539 ft | 392 kts | 113° |
| 2026-04-28 09:01 | 31.57282 | 120.38062 | 17861 ft | 386 kts | 115° |
| 2026-04-28 09:01 | 31.56354 | 120.40981 | 17241 ft | 379 kts | 115° |
| 2026-04-28 09:01 | 31.55749 | 120.42885 | 16836 ft | 374 kts | 115° |
| 2026-04-28 09:02 | 31.54566 | 120.46672 | 16039 ft | 366 kts | 115° |
| 2026-04-28 09:02 | 31.53715 | 120.49455 | 15440 ft | 360 kts | 115° |
| 2026-04-28 09:02 | 31.52886 | 120.52196 | 14840 ft | 354 kts | 114° |
| 2026-04-28 09:02 | 31.52086 | 120.54861 | 14300 ft | 349 kts | 114° |
| 2026-04-28 09:03 | 31.51280 | 120.57556 | 13687 ft | 343 kts | 114° |
| 2026-04-28 09:03 | 31.50501 | 120.60164 | 13140 ft | 335 kts | 114° |
| 2026-04-28 09:03 | 31.49751 | 120.62675 | 12841 ft | 331 kts | 114° |
| 2026-04-28 09:03 | 31.48982 | 120.65234 | 12554 ft | 335 kts | 114° |
| 2026-04-28 09:04 | 31.48206 | 120.67820 | 12236 ft | 337 kts | 114° |
| 2026-04-28 09:04 | 31.47431 | 120.70404 | 11923 ft | 336 kts | 114° |
| 2026-04-28 09:04 | 31.46663 | 120.72968 | 11607 ft | 331 kts | 114° |
| 2026-04-28 09:04 | 31.45905 | 120.75498 | 11311 ft | 327 kts | 114° |
| 2026-04-28 09:05 | 31.45157 | 120.77993 | 10984 ft | 323 kts | 114° |
| 2026-04-28 09:05 | 31.44414 | 120.80468 | 10651 ft | 321 kts | 114° |
| 2026-04-28 09:05 | 31.43677 | 120.82919 | 10338 ft | 317 kts | 114° |
| 2026-04-28 09:05 | 31.42948 | 120.85344 | 10051 ft | 314 kts | 114° |
| 2026-04-28 09:06 | 31.42472 | 120.86925 | 9923 ft | 306 kts | 114° |
| 2026-04-28 09:06 | 31.41542 | 120.90014 | 9716 ft | 295 kts | 114° |
| 2026-04-28 09:06 | 31.40869 | 120.92246 | 9406 ft | 292 kts | 113° |
| 2026-04-28 09:06 | 31.40416 | 120.93741 | 9096 ft | 291 kts | 112° |
| 2026-04-28 09:07 | 31.39757 | 120.95922 | 8825 ft | 277 kts | 112° |
| 2026-04-28 09:07 | 31.38908 | 120.98718 | 8591 ft | 272 kts | 112° |
| 2026-04-28 09:07 | 31.38488 | 121.00095 | 8488 ft | 271 kts | 112° |
| 2026-04-28 09:07 | 31.37855 | 121.02173 | 8328 ft | 271 kts | 112° |
| 2026-04-28 09:08 | 31.37213 | 121.04280 | 8178 ft | 276 kts | 111° |
| 2026-04-28 09:08 | 31.36571 | 121.06389 | 8018 ft | 273 kts | 112° |
| 2026-04-28 09:08 | 31.35940 | 121.08460 | 7842 ft | 268 kts | 111° |
| 2026-04-28 09:08 | 31.35319 | 121.10494 | 7688 ft | 262 kts | 111° |
| 2026-04-28 09:09 | 31.34707 | 121.12486 | 7527 ft | 258 kts | 111° |
| 2026-04-28 09:09 | 31.34099 | 121.14442 | 7390 ft | 255 kts | 111° |
| 2026-04-28 09:09 | 31.33490 | 121.16399 | 7251 ft | 257 kts | 111° |
| 2026-04-28 09:09 | 31.32879 | 121.18361 | 7099 ft | 257 kts | 111° |
| 2026-04-28 09:10 | 31.32186 | 121.20275 | 6941 ft | 253 kts | 125° |
| 2026-04-28 09:10 | 31.30904 | 121.21642 | 6791 ft | 251 kts | 152° |
| 2026-04-28 09:10 | 31.29245 | 121.22260 | 6656 ft | 252 kts | 172° |
| 2026-04-28 09:10 | 31.27487 | 121.22360 | 6520 ft | 254 kts | 176° |
| 2026-04-28 09:11 | 31.25720 | 121.22442 | 6358 ft | 254 kts | 175° |
| 2026-04-28 09:11 | 31.23950 | 121.22531 | 6207 ft | 255 kts | 175° |
| 2026-04-28 09:11 | 31.22166 | 121.22627 | 6054 ft | 258 kts | 175° |
| 2026-04-28 09:11 | 31.20364 | 121.22726 | 5894 ft | 261 kts | 175° |
| 2026-04-28 09:12 | 31.18539 | 121.22825 | 5674 ft | 264 kts | 175° |
| 2026-04-28 09:12 | 31.16696 | 121.22925 | 5455 ft | 266 kts | 175° |
| 2026-04-28 09:12 | 31.14855 | 121.23026 | 5227 ft | 264 kts | 174° |
| 2026-04-28 09:12 | 31.13027 | 121.23125 | 5005 ft | 261 kts | 174° |
| 2026-04-28 09:13 | 31.11219 | 121.23224 | 4781 ft | 259 kts | 174° |
| 2026-04-28 09:13 | 31.09419 | 121.23323 | 4566 ft | 259 kts | 174° |
| 2026-04-28 09:13 | 31.07621 | 121.23421 | 4353 ft | 259 kts | 174° |
| 2026-04-28 09:13 | 31.05825 | 121.23519 | 4172 ft | 257 kts | 173° |
| 2026-04-28 09:14 | 31.04062 | 121.23652 | 3907 ft | 248 kts | 165° |
| 2026-04-28 09:14 | 31.02587 | 121.24458 | 3744 ft | 227 kts | 132° |
| 2026-04-28 09:14 | 31.01714 | 121.25895 | 3543 ft | 211 kts | 109° |
| 2026-04-28 09:14 | 31.01304 | 121.27475 | 3341 ft | 196 kts | 90° |
| 2026-04-28 09:15 | 31.01307 | 121.29010 | 3198 ft | 184 kts | 84° |
| 2026-04-28 09:15 | 31.01371 | 121.30463 | 3025 ft | 175 kts | 83° |
| 2026-04-28 09:15 | 31.01434 | 121.31861 | 2897 ft | 172 kts | 83° |
| 2026-04-28 09:15 | 31.01677 | 121.33190 | 2727 ft | 165 kts | 57° |
| 2026-04-28 09:16 | 31.02474 | 121.34134 | 2624 ft | 167 kts | 28° |
| 2026-04-28 09:16 | 31.03614 | 121.34358 | 2551 ft | 167 kts | 8° |
| 2026-04-28 09:16 | 31.04793 | 121.34397 | 2365 ft | 171 kts | 6° |
| 2026-04-28 09:16 | 31.05968 | 121.34369 | 2196 ft | 165 kts | 4° |
| 2026-04-28 09:17 | 31.07074 | 121.34313 | 2038 ft | 153 kts | 4° |
| 2026-04-28 09:17 | 31.08116 | 121.34258 | 1917 ft | 148 kts | 4° |
| 2026-04-28 09:17 | 31.09120 | 121.34006 | 1875 ft | 159 kts | 332° |
| 2026-04-28 09:17 | 31.09808 | 121.32909 | 1905 ft | 179 kts | 289° |
| 2026-04-28 09:18 | 31.09703 | 121.31461 | 1908 ft | 186 kts | 245° |
| 2026-04-28 09:18 | 31.08813 | 121.30402 | 1890 ft | 186 kts | 201° |
| 2026-04-28 09:18 | 31.07569 | 121.30244 | 1864 ft | 179 kts | 157° |
| 2026-04-28 09:18 | 31.06614 | 121.31000 | 1819 ft | 160 kts | 114° |
| 2026-04-28 09:19 | 31.06439 | 121.32168 | 1809 ft | 144 kts | 69° |
| 2026-04-28 09:19 | 31.07032 | 121.33044 | 1816 ft | 143 kts | 39° |
| 2026-04-28 09:19 | 31.07852 | 121.33734 | 1793 ft | 149 kts | 27° |
| 2026-04-28 09:19 | 31.08874 | 121.33767 | 1788 ft | 156 kts | 342° |
| 2026-04-28 09:20 | 31.09642 | 121.32838 | 1802 ft | 171 kts | 296° |
| 2026-04-28 09:20 | 31.09665 | 121.31419 | 1813 ft | 185 kts | 252° |
| 2026-04-28 09:20 | 31.08872 | 121.30243 | 1785 ft | 189 kts | 209° |
| 2026-04-28 09:20 | 31.07636 | 121.29906 | 1810 ft | 181 kts | 165° |
| 2026-04-28 09:21 | 31.06583 | 121.30530 | 1811 ft | 166 kts | 122° |
| 2026-04-28 09:21 | 31.06226 | 121.31706 | 1789 ft | 149 kts | 78° |
| 2026-04-28 09:21 | 31.06712 | 121.32680 | 1807 ft | 142 kts | 34° |
| 2026-04-28 09:21 | 31.07619 | 121.33170 | 1821 ft | 147 kts | 26° |
| 2026-04-28 09:22 | 31.08564 | 121.33655 | 1814 ft | 148 kts | 27° |
| 2026-04-28 09:22 | 31.09547 | 121.33936 | 1785 ft | 144 kts | 8° |
| 2026-04-28 09:22 | 31.10540 | 121.33994 | 1583 ft | 140 kts | 8° |
| 2026-04-28 09:22 | 31.11498 | 121.34047 | 1400 ft | 136 kts | 4° |
| 2026-04-28 09:23 | 31.12444 | 121.34022 | 1206 ft | 135 kts | 1° |
| 2026-04-28 09:23 | 31.13367 | 121.33976 | 1034 ft | 133 kts | 1° |
| 2026-04-28 09:23 | 31.14315 | 121.33925 | 850 ft | 140 kts | 1° |
| 2026-04-28 09:23 | 31.15286 | 121.33872 | 641 ft | 138 kts | 1° |
| 2026-04-28 09:24 | 31.16256 | 121.33817 | 465 ft | 141 kts | 1° |
| 2026-04-28 09:24 | 31.17239 | 121.33762 | 272 ft | 142 kts | 359° |
| 2026-04-28 09:24 | 31.18223 | 121.33709 | 92 ft | 141 kts | 358° |
| 2026-04-28 09:24 | 31.19178 | 121.33664 | 29 ft | 126 kts | 358° |
| 2026-04-28 09:25 | 31.19872 | 121.33625 | 25 ft | 73 kts | 357° |
| 2026-04-28 09:25 | 31.20196 | 121.33596 | 23 ft | 29 kts | 346° |
| 2026-04-28 09:25 | 31.20355 | 121.33518 | 28 ft | 13 kts | 328° |
| 2026-04-28 09:25 | 31.20430 | 121.33465 | 27 ft | 13 kts | 329° |
| 2026-04-28 09:26 | 31.20506 | 121.33412 | 25 ft | 13 kts | 323° |
| 2026-04-28 09:26 | 31.20522 | 121.33317 | 29 ft | 13 kts | 266° |
| 2026-04-28 09:26 | 31.20516 | 121.33214 | 25 ft | 13 kts | 266° |
| 2026-04-28 09:26 | 31.20512 | 121.33112 | 24 ft | 13 kts | 267° |
| 2026-04-28 09:27 | 31.20397 | 121.33024 | 27 ft | 13 kts | 176° |
| 2026-04-28 09:27 | 31.20309 | 121.33031 | 27 ft | 13 kts | 176° |
| 2026-04-28 09:27 | 31.20221 | 121.33035 | 27 ft | 13 kts | 178° |
| 2026-04-28 09:28 | 31.20133 | 121.33038 | 27 ft | 13 kts | 178° |
| 2026-04-28 09:28 | 31.20072 | 121.32981 | 29 ft | 13 kts | 258° |
| 2026-04-28 09:28 | 31.20064 | 121.32879 | 24 ft | 13 kts | 267° |
| 2026-04-28 09:28 | 31.20060 | 121.32776 | 27 ft | 13 kts | 267° |
| 2026-04-28 09:29 | 31.20055 | 121.32685 | 29 ft | 6 kts | 260° |
| 2026-04-28 09:29 | 31.20023 | 121.32656 | 25 ft | 6 kts | 195° |
| 2026-04-28 09:29 | 31.19980 | 121.32657 | 26 ft | 6 kts | 178° |
| 2026-04-28 09:29 | 31.19971 | 121.32657 | 26 ft | 0 kts | 178° |